sensor_id;sensor_type;location;lat;lon;timestamp;P1;durP1;ratioP1;P2;durP2;ratioP2
64615;SDS011;51027;42.162;24.754;2023-04-02T00:07:54;9.45;;;3.63;;
64615;SDS011;51027;42.162;24.754;2023-04-02T00:11:00;10.30;;;3.80;;
64615;SDS011;51027;42.162;24.754;2023-04-02T00:16:01;9.93;;;3.42;;
64615;SDS011;51027;42.162;24.754;2023-04-02T00:18:30;11.93;;;3.47;;
64615;SDS011;51027;42.162;24.754;2023-04-02T00:21:08;7.03;;;3.03;;
64615;SDS011;51027;42.162;24.754;2023-04-02T00:23:40;7.63;;;3.35;;
64615;SDS011;51027;42.162;24.754;2023-04-02T00:29:10;8.85;;;3.60;;
64615;SDS011;51027;42.162;24.754;2023-04-02T00:31:38;7.97;;;3.20;;
64615;SDS011;51027;42.162;24.754;2023-04-02T00:34:07;8.32;;;2.90;;
64615;SDS011;51027;42.162;24.754;2023-04-02T00:36:37;8.25;;;3.00;;
64615;SDS011;51027;42.162;24.754;2023-04-02T00:39:06;7.68;;;3.05;;
64615;SDS011;51027;42.162;24.754;2023-04-02T00:41:38;7.95;;;2.72;;
64615;SDS011;51027;42.162;24.754;2023-04-02T00:44:11;8.73;;;3.30;;
64615;SDS011;51027;42.162;24.754;2023-04-02T00:46:39;8.55;;;3.10;;
64615;SDS011;51027;42.162;24.754;2023-04-02T00:52:01;8.03;;;2.97;;
64615;SDS011;51027;42.162;24.754;2023-04-02T00:54:36;9.05;;;3.05;;
64615;SDS011;51027;42.162;24.754;2023-04-02T00:57:10;9.02;;;3.20;;
64615;SDS011;51027;42.162;24.754;2023-04-02T00:59:46;9.48;;;3.50;;
64615;SDS011;51027;42.162;24.754;2023-04-02T01:04:54;8.88;;;3.33;;
64615;SDS011;51027;42.162;24.754;2023-04-02T01:10:39;9.98;;;3.22;;
64615;SDS011;51027;42.162;24.754;2023-04-02T01:21:25;9.75;;;3.38;;
64615;SDS011;51027;42.162;24.754;2023-04-02T01:24:04;9.52;;;3.50;;
64615;SDS011;51027;42.162;24.754;2023-04-02T01:29:15;8.82;;;3.58;;
64615;SDS011;51027;42.162;24.754;2023-04-02T01:31:44;8.95;;;3.28;;
64615;SDS011;51027;42.162;24.754;2023-04-02T01:34:14;5.90;;;2.60;;
64615;SDS011;51027;42.162;24.754;2023-04-02T01:36:48;9.02;;;3.38;;
64615;SDS011;51027;42.162;24.754;2023-04-02T01:47:39;8.57;;;2.92;;
64615;SDS011;51027;42.162;24.754;2023-04-02T01:52:50;9.18;;;3.40;;
64615;SDS011;51027;42.162;24.754;2023-04-02T01:55:23;8.60;;;3.58;;
64615;SDS011;51027;42.162;24.754;2023-04-02T01:57:55;7.10;;;2.55;;
64615;SDS011;51027;42.162;24.754;2023-04-02T02:00:22;10.25;;;2.90;;
64615;SDS011;51027;42.162;24.754;2023-04-02T02:02:49;9.15;;;3.13;;
64615;SDS011;51027;42.162;24.754;2023-04-02T02:05:16;8.48;;;3.00;;
64615;SDS011;51027;42.162;24.754;2023-04-02T02:07:45;7.30;;;2.78;;
64615;SDS011;51027;42.162;24.754;2023-04-02T02:10:15;6.70;;;2.88;;
64615;SDS011;51027;42.162;24.754;2023-04-02T02:12:45;10.73;;;3.10;;
64615;SDS011;51027;42.162;24.754;2023-04-02T02:15:15;8.30;;;2.90;;
64615;SDS011;51027;42.162;24.754;2023-04-02T02:17:43;9.00;;;2.90;;
64615;SDS011;51027;42.162;24.754;2023-04-02T02:20:09;6.65;;;2.75;;
64615;SDS011;51027;42.162;24.754;2023-04-02T02:22:38;5.78;;;2.22;;
64615;SDS011;51027;42.162;24.754;2023-04-02T02:25:14;5.65;;;2.90;;
64615;SDS011;51027;42.162;24.754;2023-04-02T02:27:47;7.72;;;2.78;;
64615;SDS011;51027;42.162;24.754;2023-04-02T02:30:27;3.78;;;2.45;;
64615;SDS011;51027;42.162;24.754;2023-04-02T02:35:45;7.78;;;2.63;;
64615;SDS011;51027;42.162;24.754;2023-04-02T02:40:59;7.90;;;2.63;;
64615;SDS011;51027;42.162;24.754;2023-04-02T02:43:31;7.40;;;2.60;;
64615;SDS011;51027;42.162;24.754;2023-04-02T02:45:59;6.25;;;2.85;;
64615;SDS011;51027;42.162;24.754;2023-04-02T02:48:33;6.45;;;2.30;;
64615;SDS011;51027;42.162;24.754;2023-04-02T02:51:02;10.60;;;3.80;;
64615;SDS011;51027;42.162;24.754;2023-04-02T02:53:33;10.23;;;3.25;;
64615;SDS011;51027;42.162;24.754;2023-04-02T02:56:14;8.55;;;3.22;;
64615;SDS011;51027;42.162;24.754;2023-04-02T02:58:40;9.10;;;3.55;;
64615;SDS011;51027;42.162;24.754;2023-04-02T03:01:06;11.13;;;3.58;;
64615;SDS011;51027;42.162;24.754;2023-04-02T03:03:31;8.05;;;2.95;;
64615;SDS011;51027;42.162;24.754;2023-04-02T03:06:02;11.38;;;3.38;;
64615;SDS011;51027;42.162;24.754;2023-04-02T03:13:30;9.48;;;3.28;;
64615;SDS011;51027;42.162;24.754;2023-04-02T03:21:05;9.13;;;3.10;;
64615;SDS011;51027;42.162;24.754;2023-04-02T03:24:08;9.23;;;3.10;;
64615;SDS011;51027;42.162;24.754;2023-04-02T03:26:32;6.28;;;2.78;;
64615;SDS011;51027;42.162;24.754;2023-04-02T03:29:14;5.93;;;2.47;;
64615;SDS011;51027;42.162;24.754;2023-04-02T03:31:53;6.65;;;2.80;;
64615;SDS011;51027;42.162;24.754;2023-04-02T03:34:24;10.10;;;3.20;;
64615;SDS011;51027;42.162;24.754;2023-04-02T03:36:58;7.72;;;2.92;;
64615;SDS011;51027;42.162;24.754;2023-04-02T03:39:40;9.52;;;3.20;;
64615;SDS011;51027;42.162;24.754;2023-04-02T03:45:06;7.03;;;2.90;;
64615;SDS011;51027;42.162;24.754;2023-04-02T03:52:45;9.77;;;3.17;;
64615;SDS011;51027;42.162;24.754;2023-04-02T03:55:21;8.60;;;3.33;;
64615;SDS011;51027;42.162;24.754;2023-04-02T04:03:44;9.80;;;3.15;;
64615;SDS011;51027;42.162;24.754;2023-04-02T04:06:26;12.13;;;3.83;;
64615;SDS011;51027;42.162;24.754;2023-04-02T04:08:58;11.70;;;4.18;;
64615;SDS011;51027;42.162;24.754;2023-04-02T04:11:32;11.60;;;3.95;;
64615;SDS011;51027;42.162;24.754;2023-04-02T04:16:52;11.93;;;4.20;;
64615;SDS011;51027;42.162;24.754;2023-04-02T04:19:39;10.77;;;3.75;;
64615;SDS011;51027;42.162;24.754;2023-04-02T04:25:01;11.43;;;3.55;;
64615;SDS011;51027;42.162;24.754;2023-04-02T04:27:35;10.95;;;3.58;;
64615;SDS011;51027;42.162;24.754;2023-04-02T04:30:15;13.10;;;4.00;;
64615;SDS011;51027;42.162;24.754;2023-04-02T04:32:51;13.57;;;3.83;;
64615;SDS011;51027;42.162;24.754;2023-04-02T04:35:29;11.90;;;3.25;;
64615;SDS011;51027;42.162;24.754;2023-04-02T04:38:20;13.52;;;3.83;;
64615;SDS011;51027;42.162;24.754;2023-04-02T04:40:53;9.45;;;3.38;;
64615;SDS011;51027;42.162;24.754;2023-04-02T04:43:27;9.98;;;3.38;;
64615;SDS011;51027;42.162;24.754;2023-04-02T04:45:59;10.15;;;3.58;;
64615;SDS011;51027;42.162;24.754;2023-04-02T04:48:36;9.88;;;3.55;;
64615;SDS011;51027;42.162;24.754;2023-04-02T04:51:18;10.27;;;3.03;;
64615;SDS011;51027;42.162;24.754;2023-04-02T04:53:51;11.18;;;3.53;;
64615;SDS011;51027;42.162;24.754;2023-04-02T04:56:20;10.38;;;3.50;;
64615;SDS011;51027;42.162;24.754;2023-04-02T05:01:25;11.55;;;3.67;;
64615;SDS011;51027;42.162;24.754;2023-04-02T05:12:25;11.18;;;3.35;;
64615;SDS011;51027;42.162;24.754;2023-04-02T05:26:08;10.63;;;3.78;;
64615;SDS011;51027;42.162;24.754;2023-04-02T05:28:42;12.35;;;4.05;;
64615;SDS011;51027;42.162;24.754;2023-04-02T05:33:46;13.13;;;4.35;;
64615;SDS011;51027;42.162;24.754;2023-04-02T05:36:21;14.75;;;4.95;;
64615;SDS011;51027;42.162;24.754;2023-04-02T05:38:50;14.35;;;5.10;;
64615;SDS011;51027;42.162;24.754;2023-04-02T05:41:20;13.50;;;4.95;;
64615;SDS011;51027;42.162;24.754;2023-04-02T05:46:42;10.85;;;3.65;;
64615;SDS011;51027;42.162;24.754;2023-04-02T05:49:19;10.93;;;3.60;;
64615;SDS011;51027;42.162;24.754;2023-04-02T05:51:53;9.18;;;3.20;;
64615;SDS011;51027;42.162;24.754;2023-04-02T05:54:31;8.25;;;2.88;;
64615;SDS011;51027;42.162;24.754;2023-04-02T05:57:09;7.88;;;2.92;;
64615;SDS011;51027;42.162;24.754;2023-04-02T05:59:43;6.30;;;2.70;;
64615;SDS011;51027;42.162;24.754;2023-04-02T06:02:19;7.93;;;3.08;;
64615;SDS011;51027;42.162;24.754;2023-04-02T06:04:53;8.93;;;2.78;;
64615;SDS011;51027;42.162;24.754;2023-04-02T06:07:27;8.85;;;2.90;;
64615;SDS011;51027;42.162;24.754;2023-04-02T06:10:06;7.20;;;2.75;;
64615;SDS011;51027;42.162;24.754;2023-04-02T06:15:34;9.52;;;2.60;;
64615;SDS011;51027;42.162;24.754;2023-04-02T06:18:06;7.95;;;3.05;;
64615;SDS011;51027;42.162;24.754;2023-04-02T06:20:38;9.70;;;3.28;;
64615;SDS011;51027;42.162;24.754;2023-04-02T06:23:06;9.00;;;3.03;;
64615;SDS011;51027;42.162;24.754;2023-04-02T06:28:45;7.78;;;2.97;;
64615;SDS011;51027;42.162;24.754;2023-04-02T06:33:53;11.43;;;3.45;;
64615;SDS011;51027;42.162;24.754;2023-04-02T06:36:20;9.38;;;2.90;;
64615;SDS011;51027;42.162;24.754;2023-04-02T06:38:46;8.02;;;3.13;;
64615;SDS011;51027;42.162;24.754;2023-04-02T06:41:16;9.82;;;3.58;;
64615;SDS011;51027;42.162;24.754;2023-04-02T06:43:47;7.45;;;2.90;;
64615;SDS011;51027;42.162;24.754;2023-04-02T06:52:04;9.15;;;3.22;;
64615;SDS011;51027;42.162;24.754;2023-04-02T06:54:36;9.63;;;3.25;;
64615;SDS011;51027;42.162;24.754;2023-04-02T06:57:01;7.93;;;3.15;;
64615;SDS011;51027;42.162;24.754;2023-04-02T06:59:30;9.40;;;3.05;;
64615;SDS011;51027;42.162;24.754;2023-04-02T07:02:03;5.60;;;2.63;;
64615;SDS011;51027;42.162;24.754;2023-04-02T07:04:40;7.47;;;2.80;;
64615;SDS011;51027;42.162;24.754;2023-04-02T07:07:06;6.78;;;2.83;;
64615;SDS011;51027;42.162;24.754;2023-04-02T07:09:31;6.18;;;2.28;;
64615;SDS011;51027;42.162;24.754;2023-04-02T07:11:56;7.13;;;2.83;;
64615;SDS011;51027;42.162;24.754;2023-04-02T07:14:22;7.53;;;2.88;;
64615;SDS011;51027;42.162;24.754;2023-04-02T07:16:47;6.95;;;2.72;;
64615;SDS011;51027;42.162;24.754;2023-04-02T07:19:17;4.53;;;2.05;;
64615;SDS011;51027;42.162;24.754;2023-04-02T07:21:44;4.30;;;2.10;;
64615;SDS011;51027;42.162;24.754;2023-04-02T07:24:09;5.93;;;2.28;;
64615;SDS011;51027;42.162;24.754;2023-04-02T07:26:35;5.90;;;2.25;;
64615;SDS011;51027;42.162;24.754;2023-04-02T07:29:00;6.80;;;2.55;;
64615;SDS011;51027;42.162;24.754;2023-04-02T07:31:26;7.65;;;2.60;;
64615;SDS011;51027;42.162;24.754;2023-04-02T07:33:56;9.25;;;2.92;;
64615;SDS011;51027;42.162;24.754;2023-04-02T07:36:24;9.70;;;3.03;;
64615;SDS011;51027;42.162;24.754;2023-04-02T07:38:51;9.73;;;3.03;;
64615;SDS011;51027;42.162;24.754;2023-04-02T07:41:17;5.78;;;2.50;;
64615;SDS011;51027;42.162;24.754;2023-04-02T07:43:43;9.65;;;3.00;;
64615;SDS011;51027;42.162;24.754;2023-04-02T07:46:09;8.32;;;3.13;;
64615;SDS011;51027;42.162;24.754;2023-04-02T07:48:38;9.18;;;2.45;;
64615;SDS011;51027;42.162;24.754;2023-04-02T07:51:04;4.97;;;2.35;;
64615;SDS011;51027;42.162;24.754;2023-04-02T07:53:37;8.30;;;2.92;;
64615;SDS011;51027;42.162;24.754;2023-04-02T07:56:03;8.30;;;3.00;;
64615;SDS011;51027;42.162;24.754;2023-04-02T07:58:31;11.07;;;3.17;;
64615;SDS011;51027;42.162;24.754;2023-04-02T08:00:57;11.95;;;3.30;;
64615;SDS011;51027;42.162;24.754;2023-04-02T08:03:24;5.88;;;2.60;;
64615;SDS011;51027;42.162;24.754;2023-04-02T08:05:54;10.43;;;2.97;;
64615;SDS011;51027;42.162;24.754;2023-04-02T08:08:22;6.97;;;2.70;;
64615;SDS011;51027;42.162;24.754;2023-04-02T08:10:48;6.18;;;2.78;;
64615;SDS011;51027;42.162;24.754;2023-04-02T08:13:14;6.40;;;2.65;;
64615;SDS011;51027;42.162;24.754;2023-04-02T08:15:41;8.15;;;2.78;;
64615;SDS011;51027;42.162;24.754;2023-04-02T08:18:07;7.40;;;2.60;;
64615;SDS011;51027;42.162;24.754;2023-04-02T08:20:33;9.27;;;2.65;;
64615;SDS011;51027;42.162;24.754;2023-04-02T08:22:58;5.15;;;2.60;;
64615;SDS011;51027;42.162;24.754;2023-04-02T08:25:25;8.27;;;2.70;;
64615;SDS011;51027;42.162;24.754;2023-04-02T08:27:51;7.85;;;2.50;;
64615;SDS011;51027;42.162;24.754;2023-04-02T08:30:17;8.32;;;2.63;;
64615;SDS011;51027;42.162;24.754;2023-04-02T08:32:42;4.82;;;1.90;;
64615;SDS011;51027;42.162;24.754;2023-04-02T08:35:08;8.50;;;2.13;;
64615;SDS011;51027;42.162;24.754;2023-04-02T08:37:35;12.40;;;2.33;;
64615;SDS011;51027;42.162;24.754;2023-04-02T08:40:02;9.40;;;2.30;;
64615;SDS011;51027;42.162;24.754;2023-04-02T08:42:32;3.00;;;1.60;;
64615;SDS011;51027;42.162;24.754;2023-04-02T08:47:29;8.20;;;2.00;;
64615;SDS011;51027;42.162;24.754;2023-04-02T08:49:58;4.05;;;1.90;;
64615;SDS011;51027;42.162;24.754;2023-04-02T08:52:33;8.52;;;2.47;;
64615;SDS011;51027;42.162;24.754;2023-04-02T08:55:01;4.20;;;1.60;;
64615;SDS011;51027;42.162;24.754;2023-04-02T08:57:40;13.90;;;3.15;;
64615;SDS011;51027;42.162;24.754;2023-04-02T09:03:46;7.65;;;1.95;;
64615;SDS011;51027;42.162;24.754;2023-04-02T09:06:07;18.50;;;3.65;;
64615;SDS011;51027;42.162;24.754;2023-04-02T09:08:36;5.00;;;2.10;;
64615;SDS011;51027;42.162;24.754;2023-04-02T09:11:23;9.75;;;2.70;;
64615;SDS011;51027;42.162;24.754;2023-04-02T09:13:56;5.25;;;1.75;;
64615;SDS011;51027;42.162;24.754;2023-04-02T09:16:25;6.53;;;2.33;;
64615;SDS011;51027;42.162;24.754;2023-04-02T09:19:09;8.48;;;2.45;;
64615;SDS011;51027;42.162;24.754;2023-04-02T09:21:42;5.80;;;2.00;;
64615;SDS011;51027;42.162;24.754;2023-04-02T09:24:12;4.07;;;2.00;;
64615;SDS011;51027;42.162;24.754;2023-04-02T09:26:38;7.65;;;2.25;;
64615;SDS011;51027;42.162;24.754;2023-04-02T09:31:39;5.13;;;1.92;;
64615;SDS011;51027;42.162;24.754;2023-04-02T09:34:27;10.57;;;3.00;;
64615;SDS011;51027;42.162;24.754;2023-04-02T09:36:55;4.28;;;2.08;;
64615;SDS011;51027;42.162;24.754;2023-04-02T09:39:21;8.38;;;2.40;;
64615;SDS011;51027;42.162;24.754;2023-04-02T09:41:52;4.65;;;2.28;;
64615;SDS011;51027;42.162;24.754;2023-04-02T09:46:51;4.32;;;2.10;;
64615;SDS011;51027;42.162;24.754;2023-04-02T09:54:35;7.75;;;2.10;;
64615;SDS011;51027;42.162;24.754;2023-04-02T09:57:15;11.10;;;3.22;;
64615;SDS011;51027;42.162;24.754;2023-04-02T10:00:03;2.88;;;1.77;;
64615;SDS011;51027;42.162;24.754;2023-04-02T10:02:37;5.53;;;1.90;;
64615;SDS011;51027;42.162;24.754;2023-04-02T10:05:05;2.78;;;1.40;;
64615;SDS011;51027;42.162;24.754;2023-04-02T10:07:42;3.13;;;1.30;;
64615;SDS011;51027;42.162;24.754;2023-04-02T10:10:30;3.58;;;1.52;;
64615;SDS011;51027;42.162;24.754;2023-04-02T10:15:39;4.20;;;1.67;;
64615;SDS011;51027;42.162;24.754;2023-04-02T10:18:13;6.00;;;1.70;;
64615;SDS011;51027;42.162;24.754;2023-04-02T10:20:59;4.05;;;1.33;;
64615;SDS011;51027;42.162;24.754;2023-04-02T10:23:28;3.53;;;1.55;;
64615;SDS011;51027;42.162;24.754;2023-04-02T10:25:58;2.55;;;1.17;;
64615;SDS011;51027;42.162;24.754;2023-04-02T10:28:55;2.05;;;1.60;;
64615;SDS011;51027;42.162;24.754;2023-04-02T10:31:27;2.55;;;0.98;;
64615;SDS011;51027;42.162;24.754;2023-04-02T10:34:17;2.72;;;1.38;;
64615;SDS011;51027;42.162;24.754;2023-04-02T10:36:50;5.68;;;1.80;;
64615;SDS011;51027;42.162;24.754;2023-04-02T10:39:38;3.08;;;1.48;;
64615;SDS011;51027;42.162;24.754;2023-04-02T10:44:49;5.10;;;1.60;;
64615;SDS011;51027;42.162;24.754;2023-04-02T10:47:58;3.10;;;1.60;;
64615;SDS011;51027;42.162;24.754;2023-04-02T10:52:52;3.60;;;1.40;;
64615;SDS011;51027;42.162;24.754;2023-04-02T10:55:27;3.58;;;1.70;;
64615;SDS011;51027;42.162;24.754;2023-04-02T10:57:57;3.05;;;1.17;;
64615;SDS011;51027;42.162;24.754;2023-04-02T11:00:36;1.75;;;1.13;;
64615;SDS011;51027;42.162;24.754;2023-04-02T11:03:09;1.77;;;1.42;;
64615;SDS011;51027;42.162;24.754;2023-04-02T11:05:47;4.47;;;1.55;;
64615;SDS011;51027;42.162;24.754;2023-04-02T11:08:21;3.97;;;1.40;;
64615;SDS011;51027;42.162;24.754;2023-04-02T11:10:49;5.53;;;1.88;;
64615;SDS011;51027;42.162;24.754;2023-04-02T11:13:27;1.95;;;1.50;;
64615;SDS011;51027;42.162;24.754;2023-04-02T11:15:55;6.72;;;1.90;;
64615;SDS011;51027;42.162;24.754;2023-04-02T11:18:30;7.18;;;1.88;;
64615;SDS011;51027;42.162;24.754;2023-04-02T11:21:03;9.48;;;2.70;;
64615;SDS011;51027;42.162;24.754;2023-04-02T11:26:28;9.82;;;2.90;;
64615;SDS011;51027;42.162;24.754;2023-04-02T11:29:04;10.10;;;3.38;;
64615;SDS011;51027;42.162;24.754;2023-04-02T11:31:30;5.75;;;2.00;;
64615;SDS011;51027;42.162;24.754;2023-04-02T11:33:56;2.10;;;1.23;;
64615;SDS011;51027;42.162;24.754;2023-04-02T11:39:43;6.50;;;1.90;;
64615;SDS011;51027;42.162;24.754;2023-04-02T11:44:42;4.40;;;1.63;;
64615;SDS011;51027;42.162;24.754;2023-04-02T11:47:40;15.52;;;3.22;;
64615;SDS011;51027;42.162;24.754;2023-04-02T11:49:59;3.72;;;1.67;;
64615;SDS011;51027;42.162;24.754;2023-04-02T11:52:33;2.45;;;1.52;;
64615;SDS011;51027;42.162;24.754;2023-04-02T11:55:16;3.28;;;1.50;;
64615;SDS011;51027;42.162;24.754;2023-04-02T12:11:43;7.55;;;2.40;;
64615;SDS011;51027;42.162;24.754;2023-04-02T12:19:45;3.90;;;1.60;;
64615;SDS011;51027;42.162;24.754;2023-04-02T12:22:23;3.85;;;1.73;;
64615;SDS011;51027;42.162;24.754;2023-04-02T12:24:52;5.18;;;1.90;;
64615;SDS011;51027;42.162;24.754;2023-04-02T12:27:24;8.38;;;2.80;;
64615;SDS011;51027;42.162;24.754;2023-04-02T12:30:09;3.03;;;1.58;;
64615;SDS011;51027;42.162;24.754;2023-04-02T12:32:37;5.28;;;1.70;;
64615;SDS011;51027;42.162;24.754;2023-04-02T12:35:03;4.80;;;2.05;;
64615;SDS011;51027;42.162;24.754;2023-04-02T12:37:30;3.65;;;1.73;;
64615;SDS011;51027;42.162;24.754;2023-04-02T12:39:57;4.45;;;1.80;;
64615;SDS011;51027;42.162;24.754;2023-04-02T12:42:35;3.03;;;1.38;;
64615;SDS011;51027;42.162;24.754;2023-04-02T12:45:02;4.15;;;1.70;;
64615;SDS011;51027;42.162;24.754;2023-04-02T12:47:29;5.72;;;2.15;;
64615;SDS011;51027;42.162;24.754;2023-04-02T12:49:55;6.13;;;2.30;;
64615;SDS011;51027;42.162;24.754;2023-04-02T12:52:25;2.78;;;1.50;;
64615;SDS011;51027;42.162;24.754;2023-04-02T12:54:59;13.85;;;2.80;;
64615;SDS011;51027;42.162;24.754;2023-04-02T12:59:56;2.85;;;1.17;;
64615;SDS011;51027;42.162;24.754;2023-04-02T13:02:24;5.75;;;2.38;;
64615;SDS011;51027;42.162;24.754;2023-04-02T13:04:53;9.75;;;2.40;;
64615;SDS011;51027;42.162;24.754;2023-04-02T13:07:21;9.77;;;3.40;;
64615;SDS011;51027;42.162;24.754;2023-04-02T13:09:53;13.10;;;2.95;;
64615;SDS011;51027;42.162;24.754;2023-04-02T13:12:30;4.13;;;2.00;;
64615;SDS011;51027;42.162;24.754;2023-04-02T13:14:58;8.35;;;2.05;;
64615;SDS011;51027;42.162;24.754;2023-04-02T13:17:42;3.97;;;1.50;;
64615;SDS011;51027;42.162;24.754;2023-04-02T13:22:58;7.60;;;2.05;;
64615;SDS011;51027;42.162;24.754;2023-04-02T13:25:27;5.65;;;1.90;;
64615;SDS011;51027;42.162;24.754;2023-04-02T13:27:59;7.50;;;2.00;;
64615;SDS011;51027;42.162;24.754;2023-04-02T13:30:26;3.63;;;1.67;;
64615;SDS011;51027;42.162;24.754;2023-04-02T13:32:53;4.25;;;1.92;;
64615;SDS011;51027;42.162;24.754;2023-04-02T13:35:19;8.40;;;2.70;;
64615;SDS011;51027;42.162;24.754;2023-04-02T13:37:45;4.88;;;1.77;;
64615;SDS011;51027;42.162;24.754;2023-04-02T13:40:12;14.63;;;3.47;;
64615;SDS011;51027;42.162;24.754;2023-04-02T13:42:39;7.00;;;2.17;;
64615;SDS011;51027;42.162;24.754;2023-04-02T13:45:08;6.38;;;2.42;;
64615;SDS011;51027;42.162;24.754;2023-04-02T13:47:48;6.88;;;2.60;;
64615;SDS011;51027;42.162;24.754;2023-04-02T13:50:15;13.98;;;2.67;;
64615;SDS011;51027;42.162;24.754;2023-04-02T13:52:42;7.30;;;2.30;;
64615;SDS011;51027;42.162;24.754;2023-04-02T13:55:07;4.00;;;1.77;;
64615;SDS011;51027;42.162;24.754;2023-04-02T13:57:34;5.15;;;1.92;;
64615;SDS011;51027;42.162;24.754;2023-04-02T14:00:00;5.40;;;2.00;;
64615;SDS011;51027;42.162;24.754;2023-04-02T14:02:26;17.75;;;3.33;;
64615;SDS011;51027;42.162;24.754;2023-04-02T14:05:00;13.68;;;2.53;;
64615;SDS011;51027;42.162;24.754;2023-04-02T14:13:01;4.90;;;1.73;;
64615;SDS011;51027;42.162;24.754;2023-04-02T14:21:13;2.30;;;1.33;;
64615;SDS011;51027;42.162;24.754;2023-04-02T14:23:48;3.72;;;1.27;;
64615;SDS011;51027;42.162;24.754;2023-04-02T14:32:19;5.00;;;2.00;;
64615;SDS011;51027;42.162;24.754;2023-04-02T14:34:52;4.65;;;1.77;;
64615;SDS011;51027;42.162;24.754;2023-04-02T14:37:43;6.13;;;2.00;;
64615;SDS011;51027;42.162;24.754;2023-04-02T14:43:01;2.50;;;1.33;;
64615;SDS011;51027;42.162;24.754;2023-04-02T14:51:03;10.38;;;3.53;;
64615;SDS011;51027;42.162;24.754;2023-04-02T14:56:14;2.40;;;1.70;;
64615;SDS011;51027;42.162;24.754;2023-04-02T14:58:42;4.18;;;1.70;;
64615;SDS011;51027;42.162;24.754;2023-04-02T15:01:13;5.75;;;2.10;;
64615;SDS011;51027;42.162;24.754;2023-04-02T15:03:57;7.20;;;2.30;;
64615;SDS011;51027;42.162;24.754;2023-04-02T15:06:30;10.43;;;3.78;;
64615;SDS011;51027;42.162;24.754;2023-04-02T15:09:05;9.60;;;3.10;;
64615;SDS011;51027;42.162;24.754;2023-04-02T15:11:40;2.63;;;1.70;;
64615;SDS011;51027;42.162;24.754;2023-04-02T15:14:20;4.35;;;1.80;;
64615;SDS011;51027;42.162;24.754;2023-04-02T15:16:54;4.50;;;1.73;;
64615;SDS011;51027;42.162;24.754;2023-04-02T15:19:19;5.63;;;1.70;;
64615;SDS011;51027;42.162;24.754;2023-04-02T15:30:26;2.88;;;1.80;;
64615;SDS011;51027;42.162;24.754;2023-04-02T15:32:55;3.50;;;2.10;;
64615;SDS011;51027;42.162;24.754;2023-04-02T15:35:46;5.35;;;1.80;;
64615;SDS011;51027;42.162;24.754;2023-04-02T15:38:18;6.38;;;2.53;;
64615;SDS011;51027;42.162;24.754;2023-04-02T15:46:19;4.75;;;1.75;;
64615;SDS011;51027;42.162;24.754;2023-04-02T15:51:39;9.18;;;3.13;;
64615;SDS011;51027;42.162;24.754;2023-04-02T15:57:36;6.22;;;2.30;;
64615;SDS011;51027;42.162;24.754;2023-04-02T16:00:25;4.82;;;1.70;;
64615;SDS011;51027;42.162;24.754;2023-04-02T16:11:25;6.15;;;2.30;;
64615;SDS011;51027;42.162;24.754;2023-04-02T16:13:52;4.55;;;2.10;;
64615;SDS011;51027;42.162;24.754;2023-04-02T16:16:32;6.35;;;2.33;;
64615;SDS011;51027;42.162;24.754;2023-04-02T16:24:25;4.55;;;1.88;;
64615;SDS011;51027;42.162;24.754;2023-04-02T16:37:55;10.45;;;2.83;;
64615;SDS011;51027;42.162;24.754;2023-04-02T16:40:56;9.37;;;3.40;;
64615;SDS011;51027;42.162;24.754;2023-04-02T16:48:49;9.43;;;3.22;;
64615;SDS011;51027;42.162;24.754;2023-04-02T17:02:17;7.80;;;2.50;;
64615;SDS011;51027;42.162;24.754;2023-04-02T17:07:44;12.00;;;3.78;;
64615;SDS011;51027;42.162;24.754;2023-04-02T17:18:32;10.18;;;3.13;;
64615;SDS011;51027;42.162;24.754;2023-04-02T17:21:05;11.23;;;3.30;;
64615;SDS011;51027;42.162;24.754;2023-04-02T17:23:56;12.55;;;3.53;;
64615;SDS011;51027;42.162;24.754;2023-04-02T17:26:26;12.43;;;3.22;;
64615;SDS011;51027;42.162;24.754;2023-04-02T17:28:53;10.73;;;3.40;;
64615;SDS011;51027;42.162;24.754;2023-04-02T17:31:23;10.88;;;3.05;;
64615;SDS011;51027;42.162;24.754;2023-04-02T17:33:51;12.23;;;3.85;;
64615;SDS011;51027;42.162;24.754;2023-04-02T17:41:25;11.88;;;3.88;;
64615;SDS011;51027;42.162;24.754;2023-04-02T17:46:57;11.57;;;3.90;;
64615;SDS011;51027;42.162;24.754;2023-04-02T17:57:27;13.23;;;3.95;;
64615;SDS011;51027;42.162;24.754;2023-04-02T18:00:33;12.73;;;3.70;;
64615;SDS011;51027;42.162;24.754;2023-04-02T18:03:14;12.32;;;4.03;;
64615;SDS011;51027;42.162;24.754;2023-04-02T18:05:58;13.27;;;3.95;;
64615;SDS011;51027;42.162;24.754;2023-04-02T18:11:09;10.90;;;3.42;;
64615;SDS011;51027;42.162;24.754;2023-04-02T18:19:21;8.18;;;2.40;;
64615;SDS011;51027;42.162;24.754;2023-04-02T18:42:47;11.63;;;3.88;;
64615;SDS011;51027;42.162;24.754;2023-04-02T18:45:20;11.23;;;3.80;;
64615;SDS011;51027;42.162;24.754;2023-04-02T18:50:39;14.40;;;3.80;;
64615;SDS011;51027;42.162;24.754;2023-04-02T18:53:10;13.00;;;4.38;;
64615;SDS011;51027;42.162;24.754;2023-04-02T18:55:40;12.75;;;3.88;;
64615;SDS011;51027;42.162;24.754;2023-04-02T18:58:12;12.15;;;4.10;;
64615;SDS011;51027;42.162;24.754;2023-04-02T19:00:42;13.75;;;4.03;;
64615;SDS011;51027;42.162;24.754;2023-04-02T19:05:50;14.38;;;4.13;;
64615;SDS011;51027;42.162;24.754;2023-04-02T19:08:47;13.55;;;4.72;;
64615;SDS011;51027;42.162;24.754;2023-04-02T19:11:27;13.35;;;4.40;;
64615;SDS011;51027;42.162;24.754;2023-04-02T19:14:12;13.13;;;3.83;;
64615;SDS011;51027;42.162;24.754;2023-04-02T19:22:12;13.07;;;5.55;;
64615;SDS011;51027;42.162;24.754;2023-04-02T19:30:02;11.65;;;3.60;;
64615;SDS011;51027;42.162;24.754;2023-04-02T19:33:29;12.13;;;3.58;;
64615;SDS011;51027;42.162;24.754;2023-04-02T19:36:15;11.50;;;3.67;;
64615;SDS011;51027;42.162;24.754;2023-04-02T19:38:47;11.13;;;4.03;;
64615;SDS011;51027;42.162;24.754;2023-04-02T19:41:28;13.95;;;4.57;;
64615;SDS011;51027;42.162;24.754;2023-04-02T19:44:00;16.65;;;5.50;;
64615;SDS011;51027;42.162;24.754;2023-04-02T19:46:26;17.33;;;6.47;;
64615;SDS011;51027;42.162;24.754;2023-04-02T19:49:13;14.18;;;5.00;;
64615;SDS011;51027;42.162;24.754;2023-04-02T19:51:57;12.95;;;4.28;;
64615;SDS011;51027;42.162;24.754;2023-04-02T19:54:23;12.70;;;4.38;;
64615;SDS011;51027;42.162;24.754;2023-04-02T19:56:48;13.25;;;4.00;;
64615;SDS011;51027;42.162;24.754;2023-04-02T19:59:14;15.32;;;4.68;;
64615;SDS011;51027;42.162;24.754;2023-04-02T20:01:39;13.20;;;4.03;;
64615;SDS011;51027;42.162;24.754;2023-04-02T20:04:05;15.65;;;4.60;;
64615;SDS011;51027;42.162;24.754;2023-04-02T20:06:31;14.98;;;4.70;;
64615;SDS011;51027;42.162;24.754;2023-04-02T20:08:57;11.05;;;4.00;;
64615;SDS011;51027;42.162;24.754;2023-04-02T20:11:23;12.23;;;3.40;;
64615;SDS011;51027;42.162;24.754;2023-04-02T20:13:51;12.55;;;3.85;;
64615;SDS011;51027;42.162;24.754;2023-04-02T20:16:17;13.38;;;4.20;;
64615;SDS011;51027;42.162;24.754;2023-04-02T20:18:44;12.13;;;4.13;;
64615;SDS011;51027;42.162;24.754;2023-04-02T20:21:09;15.25;;;4.00;;
64615;SDS011;51027;42.162;24.754;2023-04-02T20:23:35;14.48;;;4.45;;
64615;SDS011;51027;42.162;24.754;2023-04-02T20:26:01;14.48;;;4.72;;
64615;SDS011;51027;42.162;24.754;2023-04-02T20:28:27;16.02;;;4.88;;
64615;SDS011;51027;42.162;24.754;2023-04-02T20:30:54;12.65;;;4.55;;
64615;SDS011;51027;42.162;24.754;2023-04-02T20:33:36;12.90;;;4.30;;
64615;SDS011;51027;42.162;24.754;2023-04-02T20:36:03;15.38;;;4.55;;
64615;SDS011;51027;42.162;24.754;2023-04-02T20:38:31;11.55;;;3.72;;
64615;SDS011;51027;42.162;24.754;2023-04-02T20:40:56;9.63;;;3.60;;